Time;durP1;ratioP1;P1;durP2;ratioP2;P2;SDS_P1;SDS_P2;PMS_P1;PMS_P2;Temp;Humidity;BMP_temperature;BMP_pressure;BME280_temperature;BME280_humidity;BME280_pressure;Samples;Min_cycle;Max_cycle;Signal;HPM_P1;HPM_P2
2022/09/30 00:01:31;;;;;;;0.80;0.80;;;;;;;14.98;100.00;97247.22;5116714;27;20079;-79
2022/09/30 00:03:57;;;;;;;1.00;0.75;;;;;;;14.98;100.00;97249.91;5116310;27;20394;-79
2022/09/30 00:06:25;;;;;;;0.25;0.15;;;;;;;14.96;100.00;97259.13;5116399;27;20421;-80
2022/09/30 00:08:50;;;;;;;0.40;0.40;;;;;;;14.97;100.00;97263.53;5116008;27;20027;-79
2022/09/30 00:11:24;;;;;;;0.20;0.20;;;;;;;14.95;100.00;97274.41;5099199;27;20035;-79
2022/09/30 00:13:51;;;;;;;0.57;0.45;;;;;;;15.00;100.00;97276.75;5115869;27;20110;-79
2022/09/30 00:16:19;;;;;;;0.47;0.47;;;;;;;14.96;100.00;97272.59;5116314;27;20011;-78
2022/09/30 00:18:46;;;;;;;1.23;0.70;;;;;;;14.98;100.00;97276.84;5116415;27;20383;-77
2022/09/30 00:21:14;;;;;;;29.55;1.15;;;;;;;14.97;100.00;97279.69;5113183;27;20033;-78
2022/09/30 00:23:41;;;;;;;4.13;0.57;;;;;;;14.90;100.00;97282.03;5116365;27;20031;-78
2022/09/30 00:26:18;;;;;;;0.70;0.50;;;;;;;14.94;100.00;97290.72;5099513;27;20056;-79
2022/09/30 00:28:44;;;;;;;0.73;0.47;;;;;;;14.91;100.00;97288.28;5098889;27;20039;-78
2022/09/30 00:31:13;;;;;;;0.57;0.35;;;;;;;14.81;100.00;97273.88;5115962;27;20405;-78
2022/09/30 00:33:39;;;;;;;1.33;0.52;;;;;;;14.81;100.00;97272.03;5116042;27;20061;-79
2022/09/30 00:36:05;;;;;;;0.17;0.17;;;;;;;14.71;100.00;97256.75;5098680;27;20030;-79
2022/09/30 00:38:31;;;;;;;0.30;0.30;;;;;;;14.62;100.00;97255.69;5098855;27;20039;-78
2022/09/30 00:40:58;;;;;;;0.10;0.10;;;;;;;14.56;100.00;97250.81;5115414;27;20030;-78
2022/09/30 00:43:40;;;;;;;1.50;0.68;;;;;;;14.55;100.00;97251.81;5098779;27;20413;-79
2022/09/30 00:46:31;;;;;;;0.43;0.43;;;;;;;14.55;100.00;97243.75;5132537;27;20414;-79
2022/09/30 00:48:57;;;;;;;1.45;0.85;;;;;;;14.57;100.00;97253.41;5114665;27;20070;-79
2022/09/30 00:51:30;;;;;;;0.73;0.35;;;;;;;14.56;100.00;97254.38;5115405;27;20027;-79
2022/09/30 00:53:59;;;;;;;0.93;0.40;;;;;;;14.53;100.00;97257.31;5098382;27;20030;-79
2022/09/30 00:56:31;;;;;;;0.98;0.63;;;;;;;14.46;100.00;97264.16;5133935;27;20027;-79
2022/09/30 00:59:15;;;;;;;3.87;1.47;;;;;;;14.48;100.00;97280.22;5114831;28;20019;-78
2022/09/30 01:01:41;;;;;;;0.47;0.28;;;;;;;14.40;100.00;97264.66;5115247;27;20019;-79
2022/09/30 01:04:13;;;;;;;0.32;0.20;;;;;;;14.50;100.00;97283.63;5098250;27;20023;-79
2022/09/30 01:06:40;;;;;;;0.98;0.65;;;;;;;14.50;100.00;97262.09;5115348;27;20107;-79
2022/09/30 01:09:06;;;;;;;1.13;0.75;;;;;;;14.49;100.00;97254.97;5114953;27;20045;-79
2022/09/30 01:11:32;;;;;;;0.55;0.50;;;;;;;14.55;100.00;97255.34;5115170;27;20023;-79
2022/09/30 01:14:05;;;;;;;0.43;0.43;;;;;;;14.53;100.00;97241.16;5115073;27;20027;-79
2022/09/30 01:16:49;;;;;;;13.55;2.05;;;;;;;14.47;100.00;97247.06;5097912;27;20031;-80
2022/09/30 01:19:23;;;;;;;0.50;0.50;;;;;;;14.50;100.00;97265.63;5133174;27;20024;-79
2022/09/30 01:22:08;;;;;;;0.88;0.63;;;;;;;14.46;100.00;97250.72;5133662;27;20110;-79
2022/09/30 01:24:37;;;;;;;0.28;0.28;;;;;;;14.46;100.00;97255.22;5114771;27;20050;-79
2022/09/30 01:27:23;;;;;;;0.15;0.15;;;;;;;14.46;100.00;97256.09;5133107;27;20450;-79
2022/09/30 01:30:07;;;;;;;1.55;1.13;;;;;;;14.42;100.00;97254.66;5133198;27;20082;-79
2022/09/30 01:32:54;;;;;;;4.63;0.90;;;;;;;14.35;100.00;97253.44;5114774;27;20030;-79
2022/09/30 01:35:47;;;;;;;0.22;0.22;;;;;;;14.33;100.00;97247.34;5114461;27;20164;-79
2022/09/30 01:38:34;;;;;;;4.22;1.25;;;;;;;14.29;100.00;97248.53;5097663;27;20027;-79
2022/09/30 01:41:06;;;;;;;1.27;1.17;;;;;;;14.20;100.00;97232.28;5133019;27;20072;-79
2022/09/30 01:43:40;;;;;;;1.35;0.45;;;;;;;14.26;100.00;97237.16;5114436;27;20428;-80
2022/09/30 01:46:32;;;;;;;3.30;1.45;;;;;;;14.25;100.00;97230.06;5096863;27;20030;-79
2022/09/30 01:49:30;;;;;;;0.95;0.22;;;;;;;14.23;100.00;97227.50;5097627;27;20077;-79
2022/09/30 01:52:01;;;;;;;3.50;0.80;;;;;;;14.17;100.00;97236.06;5044299;27;20034;-80
2022/09/30 01:54:45;;;;;;;1.25;0.47;;;;;;;14.11;100.00;97244.66;5132641;27;20035;-80
2022/09/30 01:57:14;;;;;;;0.90;0.65;;;;;;;14.09;100.00;97249.28;5131313;27;20510;-79
2022/09/30 01:59:52;;;;;;;0.50;0.40;;;;;;;14.07;100.00;97253.94;5131356;27;20482;-80
2022/09/30 02:02:24;;;;;;;0.30;0.30;;;;;;;14.11;100.00;97256.25;5096976;27;20104;-80
2022/09/30 02:05:08;;;;;;;0.38;0.38;;;;;;;14.09;100.00;97254.66;5114338;27;20027;-80
2022/09/30 02:07:57;;;;;;;0.60;0.60;;;;;;;14.03;100.00;97257.84;5114336;27;20027;-80
2022/09/30 02:10:46;;;;;;;0.68;0.68;;;;;;;13.93;100.00;97251.50;5113810;27;20551;-77
2022/09/30 02:13:29;;;;;;;0.35;0.15;;;;;;;13.94;100.00;97258.56;5113701;27;20482;-79
2022/09/30 02:15:58;;;;;;;1.48;0.95;;;;;;;13.83;100.00;97247.84;5096965;27;20023;-79
2022/09/30 02:18:34;;;;;;;1.13;1.05;;;;;;;13.89;100.00;97258.09;5096836;27;20481;-80
2022/09/30 02:21:02;;;;;;;0.60;0.60;;;;;;;13.90;100.00;97258.00;5114078;27;20113;-79
2022/09/30 02:23:32;;;;;;;0.82;0.30;;;;;;;13.88;100.00;97251.00;5096680;27;20027;-79
2022/09/30 02:26:05;;;;;;;0.38;0.38;;;;;;;13.88;100.00;97251.00;5113912;27;20023;-80
2022/09/30 02:28:32;;;;;;;1.83;1.13;;;;;;;13.86;100.00;97250.28;5113850;27;20047;-80
2022/09/30 02:30:59;;;;;;;0.77;0.55;;;;;;;13.80;100.00;97242.69;5114034;27;20027;-79
2022/09/30 02:33:38;;;;;;;0.90;0.52;;;;;;;13.80;100.00;97248.09;5096459;27;20085;-79
2022/09/30 02:36:19;;;;;;;1.10;0.75;;;;;;;13.75;100.00;97247.59;5113481;27;20072;-79
2022/09/30 02:38:48;;;;;;;0.85;0.43;;;;;;;13.82;100.00;97251.50;5114073;27;20023;-80
2022/09/30 02:41:25;;;;;;;0.70;0.40;;;;;;;13.74;100.00;97253.94;5096834;27;20494;-79
2022/09/30 02:43:52;;;;;;;3.40;1.00;;;;;;;13.76;100.00;97258.22;5113458;27;20075;-79
2022/09/30 02:46:40;;;;;;;0.95;0.35;;;;;;;13.67;100.00;97271.53;5096411;27;20027;-79
2022/09/30 02:49:36;;;;;;;2.78;0.57;;;;;;;13.62;100.00;97249.53;5125997;27;20114;-79
2022/09/30 02:52:17;;;;;;;0.25;0.25;;;;;;;13.58;100.00;97252.47;5113609;27;20027;-79
2022/09/30 02:55:04;;;;;;;0.82;0.35;;;;;;;13.61;100.00;97256.75;5113382;28;20027;-79
2022/09/30 02:57:53;;;;;;;0.52;0.50;;;;;;;13.58;100.00;97260.53;5113257;28;20023;-79
2022/09/30 03:00:18;;;;;;;1.55;1.17;;;;;;;13.57;100.00;97266.88;5130466;27;20054;-79
2022/09/30 03:02:44;;;;;;;1.23;1.17;;;;;;;13.54;100.00;97268.94;5096068;28;20027;-79
2022/09/30 03:05:10;;;;;;;1.67;1.10;;;;;;;13.52;100.00;97266.38;5096274;28;20027;-79
2022/09/30 03:07:36;;;;;;;2.05;0.98;;;;;;;13.54;100.00;97277.00;5095939;28;20039;-78
2022/09/30 03:10:15;;;;;;;0.73;0.55;;;;;;;13.55;100.00;97282.28;5113409;28;20041;-79
2022/09/30 03:13:09;;;;;;;0.22;0.22;;;;;;;13.61;100.00;97299.75;5113322;28;20379;-79
2022/09/30 03:15:55;;;;;;;1.67;1.17;;;;;;;13.55;100.00;97305.59;5113164;28;20034;-79
2022/09/30 03:18:36;;;;;;;1.15;0.55;;;;;;;13.46;100.00;97301.78;5129357;28;20023;-79
2022/09/30 03:21:08;;;;;;;1.15;1.05;;;;;;;13.42;100.00;97300.31;5109159;28;20440;-81
2022/09/30 03:23:58;;;;;;;0.93;0.63;;;;;;;13.41;100.00;97309.34;5115619;27;20060;-78
2022/09/30 03:26:39;;;;;;;2.33;0.65;;;;;;;13.39;100.00;97299.69;5117295;27;20031;-79
2022/09/30 03:29:27;;;;;;;0.50;0.50;;;;;;;13.43;100.00;97315.47;5117249;27;20050;-79
2022/09/30 03:32:04;;;;;;;0.68;0.45;;;;;;;13.42;100.00;97311.06;5135239;27;20503;-80
2022/09/30 03:34:33;;;;;;;0.60;0.60;;;;;;;13.37;100.00;97312.41;5134185;27;20509;-79
2022/09/30 03:37:09;;;;;;;0.80;0.70;;;;;;;13.40;100.00;97306.78;5135672;27;20056;-79
2022/09/30 03:40:01;;;;;;;1.23;0.98;;;;;;;13.49;100.00;97317.69;5135922;27;20506;-81
2022/09/30 03:42:37;;;;;;;1.13;1.02;;;;;;;13.44;100.00;97309.09;5117518;27;20027;-79
2022/09/30 03:45:23;;;;;;;1.58;0.55;;;;;;;13.38;100.00;97312.25;5117103;27;20510;-78
2022/09/30 03:47:52;;;;;;;1.02;0.77;;;;;;;13.41;100.00;97320.09;5116769;27;20372;-78
2022/09/30 03:50:20;;;;;;;1.30;1.20;;;;;;;13.40;100.00;97320.22;5117197;27;20027;-79
2022/09/30 03:52:46;;;;;;;0.77;0.65;;;;;;;13.43;100.00;97325.34;5116651;27;20018;-77
2022/09/30 03:55:12;;;;;;;2.38;1.00;;;;;;;13.47;100.00;97327.66;5116871;27;20539;-81
2022/09/30 03:57:38;;;;;;;4.25;1.70;;;;;;;13.41;100.00;97325.47;5116889;27;20015;-80
2022/09/30 04:00:05;;;;;;;2.17;1.40;;;;;;;13.49;100.00;97343.69;5116491;27;20031;-79
2022/09/30 04:02:31;;;;;;;1.05;0.95;;;;;;;13.44;100.00;97341.34;5115816;27;20039;-79
2022/09/30 04:04:58;;;;;;;0.77;0.77;;;;;;;13.34;100.00;97334.97;5099952;27;20023;-79
2022/09/30 04:07:23;;;;;;;3.00;1.10;;;;;;;13.39;100.00;97327.41;5099278;27;20122;-80
2022/09/30 04:09:49;;;;;;;2.13;1.92;;;;;;;13.29;100.00;97315.66;5099413;27;20118;-80
2022/09/30 04:12:14;;;;;;;1.67;0.93;;;;;;;13.23;100.00;97316.13;5099798;27;20023;-81
2022/09/30 04:14:40;;;;;;;0.52;0.52;;;;;;;13.23;100.00;97326.00;5116506;27;20058;-81
2022/09/30 04:17:06;;;;;;;1.50;1.35;;;;;;;13.23;100.00;97317.94;5116571;27;20501;-81
2022/09/30 04:19:36;;;;;;;3.00;1.58;;;;;;;13.28;100.00;97324.72;5099554;27;20054;-81
2022/09/30 04:22:02;;;;;;;32.67;2.55;;;;;;;13.22;100.00;97322.50;5117031;27;20023;-81
2022/09/30 04:24:28;;;;;;;4.18;1.33;;;;;;;13.22;100.00;97318.94;5116426;27;20023;-80
2022/09/30 04:26:54;;;;;;;2.10;0.80;;;;;;;13.29;100.00;97325.56;5116292;27;20034;-81
2022/09/30 04:29:19;;;;;;;4.70;1.08;;;;;;;13.29;100.00;97326.41;5112564;28;20096;-80
2022/09/30 04:31:45;;;;;;;1.88;1.15;;;;;;;13.37;100.00;97334.75;5096301;28;20567;-81
2022/09/30 04:34:10;;;;;;;5.15;1.02;;;;;;;13.48;100.00;97342.84;5111867;28;20047;-80
2022/09/30 04:36:36;;;;;;;1.23;0.82;;;;;;;13.45;100.00;97342.22;5112612;28;20471;-80
2022/09/30 04:39:03;;;;;;;2.25;1.23;;;;;;;13.47;100.00;97335.72;5112676;28;20055;-81
2022/09/30 04:41:28;;;;;;;1.33;1.08;;;;;;;13.55;100.00;97352.16;5095537;28;20479;-80
2022/09/30 04:43:54;;;;;;;2.78;1.67;;;;;;;13.58;100.00;97342.97;5112821;28;20055;-80
2022/09/30 04:46:21;;;;;;;3.75;1.38;;;;;;;13.53;100.00;97321.81;5095653;28;20027;-80
2022/09/30 04:48:48;;;;;;;1.45;1.35;;;;;;;13.64;100.00;97325.53;5129851;27;20016;-80
2022/09/30 04:51:14;;;;;;;1.80;0.63;;;;;;;13.71;100.00;97319.56;5095255;28;20464;-82
2022/09/30 04:53:40;;;;;;;0.82;0.68;;;;;;;13.75;100.00;97322.88;5111155;28;20028;-81
2022/09/30 04:56:06;;;;;;;1.13;1.02;;;;;;;13.65;100.00;97330.78;5099239;28;20084;-82
2022/09/30 04:58:32;;;;;;;1.25;1.15;;;;;;;13.65;100.00;97344.22;5097749;28;20027;-80
2022/09/30 05:01:06;;;;;;;1.17;0.70;;;;;;;13.77;100.00;97356.72;5112581;28;20019;-80
2022/09/30 05:03:32;;;;;;;7.57;2.83;;;;;;;14.06;100.00;97365.16;5095033;28;20049;-80
2022/09/30 05:05:58;;;;;;;14.68;2.17;;;;;;;14.86;100.00;97382.91;5094880;28;20580;-81
2022/09/30 05:08:23;;;;;;;1.42;1.33;;;;;;;16.05;100.00;97384.53;5095118;28;20107;-80
2022/09/30 05:10:56;;;;;;;2.08;1.83;;;;;;;17.09;100.00;97347.28;5095195;28;20035;-80
2022/09/30 05:13:30;;;;;;;3.47;2.30;;;;;;;18.04;100.00;97332.91;5112213;28;20029;-81
2022/09/30 05:15:56;;;;;;;2.83;1.15;;;;;;;17.95;100.00;97301.28;5094882;28;20088;-82
2022/09/30 05:18:22;;;;;;;4.63;1.67;;;;;;;17.44;100.00;97290.84;5112068;28;20390;-80
2022/09/30 05:20:49;;;;;;;1.55;1.45;;;;;;;17.90;100.00;97297.34;5111969;28;20447;-81
2022/09/30 05:23:15;;;;;;;2.15;1.60;;;;;;;19.43;100.00;97312.81;5111820;28;20030;-81
2022/09/30 05:25:41;;;;;;;1.65;1.55;;;;;;;20.34;100.00;97276.16;5111439;28;20058;-81
2022/09/30 05:28:07;;;;;;;1.88;1.35;;;;;;;21.69;96.58;97273.09;5097189;27;20031;-82
2022/09/30 05:30:32;;;;;;;2.90;1.60;;;;;;;22.11;86.68;97254.72;5132681;27;20074;-80
2022/09/30 05:32:58;;;;;;;1.67;1.58;;;;;;;22.88;81.48;97246.78;5098068;27;20031;-82
2022/09/30 05:35:23;;;;;;;1.45;1.35;;;;;;;23.48;76.20;97230.53;5115212;27;20035;-81
2022/09/30 05:37:49;;;;;;;1.17;1.13;;;;;;;24.10;72.61;97212.84;5097530;27;20023;-80
2022/09/30 05:40:15;;;;;;;0.73;0.73;;;;;;;24.63;70.01;97197.22;5098060;27;20030;-81
2022/09/30 05:42:40;;;;;;;1.77;1.55;;;;;;;24.83;67.78;97192.84;5114864;27;20040;-83
2022/09/30 05:45:06;;;;;;;2.88;1.35;;;;;;;25.16;66.30;97182.28;5133252;27;20098;-81
2022/09/30 05:47:33;;;;;;;2.30;1.33;;;;;;;25.32;65.26;97166.41;5114620;27;20068;-80
2022/09/30 05:49:58;;;;;;;1.40;1.23;;;;;;;25.44;64.94;97157.69;5114486;27;20042;-82
2022/09/30 05:52:24;;;;;;;4.18;2.28;;;;;;;25.92;62.94;97162.31;5114711;27;20023;-82
2022/09/30 05:54:50;;;;;;;2.03;1.05;;;;;;;26.60;60.46;97144.16;5115135;27;20110;-80
2022/09/30 05:57:16;;;;;;;0.90;0.65;;;;;;;26.83;59.03;97133.69;5098463;27;20115;-82
2022/09/30 05:59:42;;;;;;;7.55;1.92;;;;;;;27.37;56.75;97120.72;5114368;27;20547;-82
2022/09/30 06:02:09;;;;;;;0.45;0.45;;;;;;;27.86;56.25;97124.94;5114480;27;20034;-83
2022/09/30 06:04:34;;;;;;;1.85;1.23;;;;;;;28.74;53.19;97117.94;5097280;27;20027;-83
2022/09/30 06:07:00;;;;;;;2.47;2.03;;;;;;;29.59;50.66;97109.97;5114071;27;20022;-83
2022/09/30 06:09:26;;;;;;;2.88;2.10;;;;;;;30.03;49.93;97117.22;5114310;27;20019;-83
2022/09/30 06:11:51;;;;;;;1.80;1.25;;;;;;;30.57;48.31;97110.06;5097118;27;20027;-82
2022/09/30 06:14:18;;;;;;;2.45;1.85;;;;;;;31.32;46.91;97102.22;5114384;27;20027;-82
2022/09/30 06:16:44;;;;;;;1.80;1.33;;;;;;;32.34;44.35;97085.13;5096983;27;20027;-82
2022/09/30 06:19:10;;;;;;;2.85;1.77;;;;;;;32.96;42.49;97086.19;5097147;27;20058;-83
2022/09/30 06:21:36;;;;;;;1.30;1.20;;;;;;;33.57;41.73;97084.53;5096563;27;20075;-82
2022/09/30 06:24:01;;;;;;;1.27;1.17;;;;;;;33.94;40.51;97079.34;5114447;27;20027;-82
2022/09/30 06:26:27;;;;;;;13.75;9.85;;;;;;;33.62;40.89;97074.41;5114356;27;20027;-83
2022/09/30 06:28:53;;;;;;;17.10;10.63;;;;;;;33.49;40.87;97077.47;5096493;28;20083;-82
2022/09/30 06:31:18;;;;;;;17.58;9.75;;;;;;;33.23;41.13;97086.44;5097225;27;20034;-83
2022/09/30 06:33:45;;;;;;;11.88;9.73;;;;;;;32.99;41.36;97084.84;5114449;27;20019;-83
2022/09/30 06:36:11;;;;;;;20.50;11.70;;;;;;;32.44;43.13;97095.59;5113900;27;20015;-83
2022/09/30 06:38:38;;;;;;;17.67;11.63;;;;;;;32.08;43.71;97091.19;5113944;27;20019;-82
2022/09/30 06:41:04;;;;;;;19.02;12.63;;;;;;;31.83;43.86;97088.63;5097243;27;20031;-83
2022/09/30 06:43:30;;;;;;;13.73;10.07;;;;;;;30.66;45.87;97092.09;5114150;27;20079;-82
2022/09/30 06:45:55;;;;;;;15.10;9.23;;;;;;;31.16;45.25;97098.25;5113692;27;20498;-82
2022/09/30 06:48:22;;;;;;;13.70;9.48;;;;;;;31.94;44.23;97098.00;5096832;27;20050;-82
2022/09/30 06:50:47;;;;;;;11.40;8.90;;;;;;;31.54;44.38;97082.09;5114003;27;20034;-83
2022/09/30 06:53:13;;;;;;;14.15;10.00;;;;;;;31.69;44.77;97099.09;5114237;27;20418;-82
2022/09/30 06:55:39;;;;;;;17.85;8.07;;;;;;;32.21;44.38;97093.69;5096910;27;20042;-82
2022/09/30 06:58:10;;;;;;;14.75;8.13;;;;;;;32.41;43.79;97099.69;5095783;27;20030;-83
2022/09/30 07:00:36;;;;;;;18.52;10.57;;;;;;;33.22;41.91;97096.69;5097276;27;20555;-82
2022/09/30 07:03:04;;;;;;;13.32;8.15;;;;;;;33.08;41.94;97105.56;5113986;28;20058;-82
2022/09/30 07:05:30;;;;;;;8.13;5.28;;;;;;;32.69;41.03;97099.78;5098694;28;20039;-82
2022/09/30 07:07:56;;;;;;;17.50;6.35;;;;;;;33.57;41.17;97110.34;5097807;28;20032;-84
2022/09/30 07:10:22;;;;;;;11.00;5.97;;;;;;;32.25;42.64;97088.50;5097651;28;20527;-84
2022/09/30 07:12:54;;;;;;;6.47;5.03;;;;;;;32.86;41.46;97105.38;5113943;28;20035;-83
2022/09/30 07:15:21;;;;;;;28.13;12.05;;;;;;;33.07;41.36;97101.91;5097551;28;20466;-84
2022/09/30 07:17:55;;;;;;;20.23;8.57;;;;;;;33.91;39.83;97107.59;5114571;28;20047;-83
2022/09/30 07:20:21;;;;;;;12.80;6.85;;;;;;;33.88;39.46;97108.13;5097774;28;20125;-84
2022/09/30 07:22:46;;;;;;;13.80;6.75;;;;;;;34.88;37.61;97107.94;5114551;28;20027;-84
2022/09/30 07:25:13;;;;;;;11.73;6.13;;;;;;;34.67;37.91;97102.09;5097096;28;20083;-82
2022/09/30 07:27:40;;;;;;;12.52;8.27;;;;;;;34.60;38.70;97101.47;5097216;28;20111;-83
2022/09/30 07:30:06;;;;;;;20.05;9.48;;;;;;;35.04;38.02;97107.03;5096987;28;20417;-82
2022/09/30 07:32:31;;;;;;;7.45;5.07;;;;;;;34.62;38.19;97104.00;5114083;28;20093;-84
2022/09/30 07:34:57;;;;;;;13.65;5.15;;;;;;;35.03;37.91;97108.13;5097285;28;20031;-83
2022/09/30 07:37:24;;;;;;;17.40;7.10;;;;;;;34.60;39.01;97101.47;5114096;28;20030;-84
2022/09/30 07:39:49;;;;;;;10.60;5.65;;;;;;;35.37;38.21;97104.06;5097293;28;20126;-83
2022/09/30 07:42:20;;;;;;;11.18;5.70;;;;;;;35.57;37.65;97111.75;5132159;28;20034;-83
2022/09/30 07:44:46;;;;;;;12.43;5.32;;;;;;;35.12;37.82;97098.25;5097492;28;20039;-82
2022/09/30 07:47:13;;;;;;;13.82;6.38;;;;;;;34.84;38.27;97102.06;5096861;28;20088;-83
2022/09/30 07:49:40;;;;;;;13.60;6.15;;;;;;;33.89;39.14;97082.88;5114529;28;20083;-84
2022/09/30 07:52:06;;;;;;;7.57;4.57;;;;;;;35.21;35.90;97102.22;5097399;28;20502;-84
2022/09/30 07:54:33;;;;;;;12.30;5.22;;;;;;;35.76;33.11;97088.88;5096638;28;20409;-84
2022/09/30 07:57:00;;;;;;;9.05;3.60;;;;;;;35.89;34.17;97098.72;5114287;28;20035;-84
2022/09/30 07:59:27;;;;;;;5.93;3.20;;;;;;;35.75;34.23;97098.31;5097078;28;20092;-85
2022/09/30 08:01:53;;;;;;;5.57;2.92;;;;;;;36.90;31.44;97111.38;5097162;28;20031;-83
2022/09/30 08:04:21;;;;;;;2.53;2.15;;;;;;;34.46;33.28;97072.34;5097299;28;20383;-84
2022/09/30 08:06:49;;;;;;;2.35;2.10;;;;;;;34.47;33.20;97079.59;5096738;28;20073;-84
2022/09/30 08:09:17;;;;;;;2.40;2.15;;;;;;;35.14;32.53;97096.03;5115536;27;20460;-83
2022/09/30 08:11:42;;;;;;;4.13;2.10;;;;;;;35.93;30.54;97088.75;5136572;27;20071;-84
2022/09/30 08:14:13;;;;;;;6.72;3.40;;;;;;;37.11;31.05;97095.56;5100890;27;20023;-83
2022/09/30 08:16:38;;;;;;;6.85;3.88;;;;;;;37.26;31.09;97103.97;5117830;27;20055;-83
2022/09/30 08:19:04;;;;;;;5.88;2.78;;;;;;;38.52;29.46;97121.97;5100495;27;20064;-83
2022/09/30 08:21:30;;;;;;;10.45;3.28;;;;;;;38.34;29.09;97109.38;5117824;27;20069;-83
2022/09/30 08:23:56;;;;;;;4.03;2.17;;;;;;;38.73;27.72;97099.22;5116841;27;20026;-84
2022/09/30 08:26:22;;;;;;;8.98;2.42;;;;;;;39.01;27.40;97106.13;5099869;27;20108;-84
2022/09/30 08:28:47;;;;;;;9.25;3.47;;;;;;;38.77;28.57;97102.28;5099966;27;20047;-84
2022/09/30 08:31:15;;;;;;;12.15;2.97;;;;;;;37.61;27.88;97078.09;5116657;27;20034;-83
2022/09/30 08:33:42;;;;;;;2.47;1.92;;;;;;;38.42;27.88;97097.66;5116718;27;20038;-84
2022/09/30 08:36:15;;;;;;;1.55;1.45;;;;;;;38.46;27.13;97090.34;5116238;27;20050;-83
2022/09/30 08:38:41;;;;;;;4.00;1.90;;;;;;;38.90;26.80;97096.13;5133955;27;20038;-83
2022/09/30 08:41:21;;;;;;;5.68;1.80;;;;;;;39.76;25.99;97104.88;5116982;27;20065;-83
2022/09/30 08:43:59;;;;;;;2.45;1.60;;;;;;;39.25;25.59;97093.19;5136166;27;20106;-84
2022/09/30 08:47:19;;;;;;;1.85;1.35;;;;;;;38.17;26.18;97083.69;5135450;27;20110;-83
2022/09/30 08:50:03;;;;;;;2.10;1.50;;;;;;;38.96;24.86;97101.41;5051406;28;20424;-84
2022/09/30 08:52:38;;;;;;;1.80;1.38;;;;;;;39.04;25.22;97098.00;5115793;27;20026;-83
2022/09/30 08:55:05;;;;;;;2.50;1.33;;;;;;;39.98;24.49;97102.47;5099050;27;20019;-84
2022/09/30 08:57:38;;;;;;;6.60;2.50;;;;;;;40.82;23.93;97119.91;5115737;27;20056;-83
2022/09/30 09:00:09;;;;;;;9.27;2.15;;;;;;;41.52;22.95;97110.59;5098849;27;20027;-83
2022/09/30 09:02:48;;;;;;;1.67;1.50;;;;;;;38.97;24.88;97093.84;5116607;27;20100;-84
2022/09/30 09:05:40;;;;;;;6.13;1.52;;;;;;;37.99;26.35;97085.94;5115664;27;20062;-84
2022/09/30 09:08:47;;;;;;;3.15;1.50;;;;;;;38.67;25.29;97097.56;5134353;27;20034;-83
2022/09/30 09:11:50;;;;;;;5.28;1.77;;;;;;;39.04;26.09;97111.97;5132837;27;20019;-82
2022/09/30 09:14:44;;;;;;;3.90;2.10;;;;;;;40.12;25.72;97113.03;5133957;27;20102;-82
2022/09/30 09:17:47;;;;;;;3.30;1.75;;;;;;;39.58;24.18;97096.31;5115599;27;20021;-85
2022/09/30 09:20:19;;;;;;;2.97;1.40;;;;;;;39.51;24.00;97102.22;5131782;27;20050;-82
2022/09/30 09:22:45;;;;;;;1.63;1.20;;;;;;;40.45;22.62;97112.16;5115307;27;20060;-82
2022/09/30 09:25:14;;;;;;;6.38;1.40;;;;;;;40.86;22.81;97118.97;5115011;27;20074;-81
2022/09/30 09:27:53;;;;;;;2.15;1.50;;;;;;;40.74;22.75;97112.97;5115121;27;20406;-83
2022/09/30 09:30:21;;;;;;;1.88;1.27;;;;;;;40.51;22.86;97113.75;5094482;28;20480;-83
2022/09/30 09:33:10;;;;;;;9.15;2.13;;;;;;;39.14;24.92;97107.47;5095141;28;20019;-84
2022/09/30 09:36:03;;;;;;;1.90;1.60;;;;;;;36.98;26.18;97092.44;5094381;28;20038;-83
2022/09/30 09:38:34;;;;;;;2.35;1.50;;;;;;;36.25;27.05;97094.25;5111643;28;20027;-82
2022/09/30 09:41:18;;;;;;;13.25;2.13;;;;;;;37.16;26.82;97103.13;5078647;28;20499;-83
2022/09/30 09:44:09;;;;;;;5.72;1.92;;;;;;;38.30;26.58;97116.66;5086823;28;20032;-83
2022/09/30 09:46:45;;;;;;;5.30;1.77;;;;;;;38.37;25.30;97097.66;5094837;28;20035;-83
2022/09/30 09:49:19;;;;;;;6.65;1.95;;;;;;;38.54;25.92;97114.97;5098125;28;20448;-83
2022/09/30 09:52:06;;;;;;;2.03;1.70;;;;;;;36.72;27.38;97109.06;5112694;28;20079;-83
2022/09/30 09:54:35;;;;;;;6.03;1.92;;;;;;;37.43;27.77;97123.28;5095072;28;20031;-82
2022/09/30 09:57:08;;;;;;;3.63;1.52;;;;;;;38.34;26.08;97134.53;5077684;28;20092;-82
2022/09/30 09:59:34;;;;;;;6.00;1.60;;;;;;;39.62;25.22;97131.88;5094320;28;20042;-83
2022/09/30 10:01:59;;;;;;;3.20;1.75;;;;;;;40.35;23.99;97143.94;5094863;28;20063;-83
2022/09/30 10:04:31;;;;;;;1.60;1.30;;;;;;;40.81;22.70;97140.66;5077649;28;20082;-81
2022/09/30 10:07:02;;;;;;;4.72;1.40;;;;;;;41.06;22.23;97134.78;5095601;28;20042;-82
2022/09/30 10:09:38;;;;;;;1.77;1.00;;;;;;;37.85;24.94;97100.72;5095189;28;20028;-83
2022/09/30 10:12:04;;;;;;;1.90;1.30;;;;;;;38.45;23.65;97111.06;5077871;28;20124;-83
2022/09/30 10:14:33;;;;;;;1.10;1.00;;;;;;;37.30;25.18;97093.09;5111095;28;20486;-82
2022/09/30 10:17:00;;;;;;;1.45;1.25;;;;;;;37.79;24.23;97091.50;5094256;28;20031;-82
2022/09/30 10:19:28;;;;;;;1.60;1.50;;;;;;;38.59;23.84;97111.28;5094192;28;20039;-83
2022/09/30 10:22:10;;;;;;;1.83;1.00;;;;;;;38.76;23.87;97100.63;5077070;28;20583;-83
2022/09/30 10:24:37;;;;;;;2.72;1.80;;;;;;;38.88;24.06;97102.00;5110751;28;20475;-83
2022/09/30 10:27:04;;;;;;;3.92;1.70;;;;;;;38.68;24.12;97104.84;5076903;28;20372;-83
2022/09/30 10:29:34;;;;;;;3.55;1.40;;;;;;;38.73;22.90;97084.41;5087618;28;20048;-83
2022/09/30 10:32:01;;;;;;;3.40;1.47;;;;;;;38.75;24.15;97091.38;5093511;28;20130;-84
2022/09/30 10:34:33;;;;;;;2.33;1.38;;;;;;;39.22;23.13;97098.47;5110796;28;20023;-83
2022/09/30 10:37:09;;;;;;;2.63;2.42;;;;;;;39.88;23.16;97112.91;5110793;28;20020;-83
2022/09/30 10:39:36;;;;;;;3.55;2.55;;;;;;;40.05;21.82;97102.97;5110187;28;20036;-82
2022/09/30 10:42:09;;;;;;;4.53;2.50;;;;;;;39.78;22.73;97101.81;5093524;28;20482;-82
2022/09/30 10:44:42;;;;;;;1.92;1.45;;;;;;;39.51;23.49;97085.44;5110424;28;20419;-84
2022/09/30 10:47:08;;;;;;;3.78;1.83;;;;;;;39.41;23.46;97096.72;5093537;28;20044;-81
2022/09/30 10:49:47;;;;;;;4.60;1.70;;;;;;;39.91;23.94;97101.97;5110015;28;20031;-82
2022/09/30 10:52:19;;;;;;;8.60;2.20;;;;;;;40.22;23.14;97104.50;5110369;28;20031;-82
2022/09/30 10:54:55;;;;;;;2.38;1.50;;;;;;;39.65;22.73;97099.63;5110125;28;20572;-82
2022/09/30 10:57:21;;;;;;;1.83;1.63;;;;;;;38.13;23.63;97079.78;5112041;28;20483;-83
2022/09/30 10:59:48;;;;;;;2.65;1.65;;;;;;;37.97;24.07;97081.75;5110680;28;20038;-84
2022/09/30 11:02:28;;;;;;;3.15;1.85;;;;;;;37.12;24.73;97071.28;5110164;28;20406;-83
2022/09/30 11:05:00;;;;;;;1.90;1.50;;;;;;;37.72;24.22;97074.19;5087969;28;20024;-84
2022/09/30 11:07:34;;;;;;;1.90;1.40;;;;;;;37.97;24.33;97079.78;5111493;28;20035;-84
2022/09/30 11:10:37;;;;;;;4.75;2.05;;;;;;;38.59;23.21;97094.50;5110044;28;20599;-83
2022/09/30 11:13:09;;;;;;;2.80;1.65;;;;;;;38.71;23.78;97104.25;5127235;28;20024;-83
2022/09/30 11:15:53;;;;;;;4.15;2.50;;;;;;;39.00;23.29;97101.66;5109966;28;20023;-83
2022/09/30 11:18:25;;;;;;;8.38;5.07;;;;;;;39.63;22.86;97111.09;5111249;28;20022;-83
2022/09/30 11:20:58;;;;;;;11.70;3.30;;;;;;;40.32;22.83;97118.44;5110079;28;20058;-84
2022/09/30 11:23:23;;;;;;;4.38;2.20;;;;;;;40.68;21.87;97118.91;5110666;28;20019;-84
2022/09/30 11:26:13;;;;;;;4.85;2.28;;;;;;;40.69;22.27;97113.03;5127768;28;20019;-84
2022/09/30 11:29:11;;;;;;;10.75;4.05;;;;;;;41.33;21.94;97128.53;5110175;28;20511;-84
2022/09/30 11:32:09;;;;;;;3.03;1.80;;;;;;;41.43;20.96;97117.19;5081154;28;20065;-84
2022/09/30 11:35:02;;;;;;;5.97;1.70;;;;;;;42.12;20.33;97128.47;5101875;28;20035;-85
2022/09/30 11:37:54;;;;;;;4.22;2.00;;;;;;;42.39;20.27;97124.09;5109679;28;20110;-84
2022/09/30 11:40:36;;;;;;;8.38;2.13;;;;;;;41.38;21.23;97097.59;5096600;28;20119;-85
2022/09/30 11:43:21;;;;;;;2.70;2.08;;;;;;;40.71;22.16;97099.53;5103423;28;20024;-84
2022/09/30 11:46:24;;;;;;;4.93;2.15;;;;;;;40.89;22.54;97111.94;5114052;28;20083;-84
2022/09/30 11:49:02;;;;;;;4.30;1.83;;;;;;;41.10;21.44;97110.59;5103270;28;20039;-83
2022/09/30 11:51:40;;;;;;;2.28;1.75;;;;;;;42.10;20.24;97121.47;5113724;28;20403;-84
2022/09/30 11:54:15;;;;;;;3.53;2.00;;;;;;;42.12;20.76;97125.66;5114118;28;20059;-85